Hauptseite
METAR-TAF:

METAR-TAF

Flughäfen :

Ulan-Ude, Russland

Breite: 51-50N, Länge: 107-36E, Höhe: 510 m

Beobachtung

Neuester Wetterbericht von vor 22 Minuten, um 12:30 UTC
Wind 4 kt aus Nord
Temperatur -16°C
Luftfeuchtigkeit 65%
Luftdruck 1027 hPa
Sichtweite: 1700 m
Rauch

METAR: UIUU 291230Z 35002MPS 9000 1700NW R08/P2000U FU NSC M16/M21 Q1027 R08/810555 NOSIG RMK QFE724/0966

Zeit: 20:52 (12:52 UTC)

Prognose

Neuester Wetterbericht von vor 1 Stunde und 52 Minuten, um 11:00 UTC
Gültige Prognose vom 29 um 12 UTC bis 01 um 12 UTC
Wind 6 kt aus West/Südwest, Böen bis zu 16 kt
Sichtweite: 2900 m
Aufgelockert bewölkt in der Höhe von 4000 ft
Rauch
Zeitweise
vom 29 um 12 UTC bis 01 um 03 UTC
Sichtweite: 1900 m
Rauch
Übergehend zu
vom 01 um 03 UTC bis 01 um 05 UTC
Sichtweite 10 km oder mehr

TAF: UIUU 291100Z 2912/0112 24003G08MPS 2900 FU SCT040 TEMPO 2912/0103 1900 FU BECMG 0103/0105 9999 NSW

Wetterbeobachtungen und Prognosen von mehr als 4000 Flughäfen (METAR und TAF Bericht).

Die verfügbaren Stationen werden durch gelbe und rote Markierungen auf der Karte dargestellt.

Führen Sie die Maus auf sie, um den Namen der Station zu sehen.

Darauf klicken, um die Beobachtung von Wetterbeobachtungen und Prognosen zu sehen.

Um die Karte zu ändern : klicken Sie auf den grünen Tasten mit einem schwarzen Kreuz Zum Vergrößern, auf den grünen Button mit einem Gedankenstrich zu verkleinern, oder auf die grünen Pfeile für benachbarte Karten.


METAR-TAF: